Time;durP1;ratioP1;P1;durP2;ratioP2;P2;SDS_P1;SDS_P2;PMS_P1;PMS_P2;Temp;Humidity;BMP_temperature;BMP_pressure;BME280_temperature;BME280_humidity;BME280_pressure;Samples;Min_cycle;Max_cycle;Signal;HPM_P1;HPM_P2
2021/12/16 00:02:04;;;;;;;16.83;9.10;;;;;;;;;;5063953;28;20049;-73
2021/12/16 00:07:30;;;;;;;17.98;8.88;;;;;;;;;;5065797;28;20040;-74
2021/12/16 00:10:01;;;;;;;21.40;9.77;;;;;;;;;;5061365;28;20165;-73
2021/12/16 00:34:16;;;;;;;17.02;8.23;;;;;;;;;;5069912;28;20048;-74
2021/12/16 00:36:43;;;;;;;20.35;9.18;;;;;;;;;;5066175;28;20371;-74
2021/12/16 00:39:12;;;;;;;14.55;8.68;;;;;;;;;;5065782;28;20044;-73
2021/12/16 00:41:40;;;;;;;21.17;10.25;;;;;;;;;;5067579;28;20047;-73
2021/12/16 00:44:19;;;;;;;19.83;10.02;;;;;;;;;;5068428;28;20502;-72
2021/12/16 00:50:06;;;;;;;16.30;8.85;;;;;;;;;;5070103;28;20121;-73
2021/12/16 00:55:17;;;;;;;15.65;8.93;;;;;;;;;;5097159;27;20433;-73
2021/12/16 00:57:44;;;;;;;11.98;7.40;;;;;;;;;;5093608;27;20072;-73
2021/12/16 01:00:14;;;;;;;14.40;8.02;;;;;;;;;;5065854;28;20033;-73
2021/12/16 01:03:11;;;;;;;14.05;8.98;;;;;;;;;;5061291;28;20094;-73
2021/12/16 01:08:37;;;;;;;15.90;7.95;;;;;;;;;;5095894;27;20553;-73
2021/12/16 02:00:00;;;;;;;12.43;7.18;;;;;;;;;;5031492;28;20055;-73
2021/12/16 02:05:22;;;;;;;10.90;6.43;;;;;;;;;;5068108;28;20079;-73
2021/12/16 02:10:16;;;;;;;12.73;7.70;;;;;;;;;;5062711;28;20397;-72
2021/12/16 02:29:23;;;;;;;14.63;6.65;;;;;;;;;;5065793;28;20043;-73
2021/12/16 02:36:55;;;;;;;;;;;;;;;;;;5098204;28;20051;-73
2021/12/16 02:39:26;;;;;;;11.23;6.50;;;;;;;;;;5069212;28;20393;-73
2021/12/16 02:41:54;;;;;;;19.95;7.07;;;;;;;;;;5065225;28;20474;-73
2021/12/16 02:49:57;;;;;;;15.02;6.93;;;;;;;;;;5063757;28;20551;-73
2021/12/16 02:52:24;;;;;;;11.80;6.15;;;;;;;;;;5066261;28;20509;-73
2021/12/16 02:54:50;;;;;;;21.70;6.38;;;;;;;;;;5065412;28;20041;-73
2021/12/16 02:57:17;;;;;;;13.60;6.15;;;;;;;;;;5068553;28;20127;-72
2021/12/16 02:59:45;;;;;;;20.25;7.45;;;;;;;;;;5065134;28;20218;-72
2021/12/16 03:02:14;;;;;;;14.73;6.80;;;;;;;;;;5071776;28;20171;-73
2021/12/16 03:04:41;;;;;;;14.10;6.32;;;;;;;;;;5095968;28;20040;-73
2021/12/16 03:07:10;;;;;;;19.00;7.20;;;;;;;;;;5040555;28;20036;-73
2021/12/16 03:10:45;;;;;;;11.20;6.55;;;;;;;;;;5073042;28;20051;-72
2021/12/16 03:15:06;;;;;;;11.82;6.40;;;;;;;;;;5061819;28;20048;-73
2021/12/16 03:17:44;;;;;;;15.52;6.95;;;;;;;;;;5066934;28;20045;-73
2021/12/16 03:20:21;;;;;;;9.90;6.97;;;;;;;;;;5066815;28;20093;-73
2021/12/16 03:38:31;;;;;;;14.75;7.43;;;;;;;;;;5067048;28;20052;-73
2021/12/16 03:40:57;;;;;;;15.45;7.45;;;;;;;;;;5061848;28;20081;-73
2021/12/16 03:43:24;;;;;;;12.10;6.40;;;;;;;;;;5071297;28;20064;-73
2021/12/16 03:48:39;;;;;;;13.70;6.38;;;;;;;;;;5068234;28;20045;-73
2021/12/16 03:51:07;;;;;;;10.95;5.95;;;;;;;;;;5065994;28;20040;-73
2021/12/16 03:53:34;;;;;;;11.07;6.38;;;;;;;;;;5069420;28;20044;-73
2021/12/16 03:56:01;;;;;;;14.48;5.90;;;;;;;;;;5065373;28;20522;-73
2021/12/16 03:58:27;;;;;;;9.95;6.32;;;;;;;;;;5071902;28;20528;-73
2021/12/16 04:00:58;;;;;;;10.90;5.78;;;;;;;;;;5066763;28;20170;-73
2021/12/16 04:03:24;;;;;;;10.05;5.43;;;;;;;;;;5091778;28;20041;-73
2021/12/16 04:05:50;;;;;;;15.52;6.28;;;;;;;;;;5067278;28;20049;-73
2021/12/16 04:08:16;;;;;;;17.45;6.40;;;;;;;;;;5067701;28;20115;-73
2021/12/16 04:10:52;;;;;;;12.02;5.68;;;;;;;;;;5069632;28;21100;-72
2021/12/16 04:13:19;;;;;;;15.18;7.05;;;;;;;;;;5070656;28;20054;-73
2021/12/16 04:15:47;;;;;;;8.95;5.60;;;;;;;;;;5062837;28;20055;-73
2021/12/16 04:18:15;;;;;;;11.48;5.60;;;;;;;;;;5069110;28;20059;-73
2021/12/16 04:20:42;;;;;;;14.20;6.97;;;;;;;;;;5052648;28;20042;-73
2021/12/16 04:23:09;;;;;;;12.52;6.65;;;;;;;;;;5067809;28;20447;-73
2021/12/16 04:25:39;;;;;;;10.70;5.53;;;;;;;;;;5068820;28;20068;-73
2021/12/16 04:28:10;;;;;;;10.40;6.05;;;;;;;;;;5068440;28;20494;-72
2021/12/16 04:30:36;;;;;;;9.00;5.45;;;;;;;;;;5064269;28;20087;-73
2021/12/16 04:33:03;;;;;;;10.52;5.63;;;;;;;;;;5067179;28;20070;-73
2021/12/16 04:35:29;;;;;;;12.98;6.00;;;;;;;;;;5068276;28;20132;-73
2021/12/16 04:37:55;;;;;;;12.88;5.57;;;;;;;;;;5095967;28;20080;-73
2021/12/16 04:40:21;;;;;;;9.55;5.38;;;;;;;;;;5069492;28;20128;-73
2021/12/16 04:42:49;;;;;;;9.50;5.78;;;;;;;;;;5067841;28;20409;-73
2021/12/16 04:45:17;;;;;;;8.88;5.35;;;;;;;;;;5049508;28;20037;-73
2021/12/16 04:47:43;;;;;;;14.70;6.07;;;;;;;;;;5062179;28;20097;-73
2021/12/16 04:50:10;;;;;;;16.13;7.35;;;;;;;;;;5065452;28;20054;-73
2021/12/16 04:52:36;;;;;;;12.73;6.03;;;;;;;;;;5065489;28;20036;-73
2021/12/16 04:55:05;;;;;;;8.23;5.43;;;;;;;;;;5046316;28;20131;-73
2021/12/16 04:57:31;;;;;;;8.68;6.03;;;;;;;;;;5098729;28;20432;-73
2021/12/16 04:59:57;;;;;;;11.82;4.70;;;;;;;;;;5067070;28;20131;-73
2021/12/16 05:02:24;;;;;;;10.93;6.05;;;;;;;;;;5069912;28;20128;-73
2021/12/16 05:04:51;;;;;;;12.15;5.72;;;;;;;;;;5065114;28;20052;-73
2021/12/16 05:07:18;;;;;;;9.20;5.63;;;;;;;;;;5069752;28;20039;-73
2021/12/16 05:12:16;;;;;;;10.75;4.93;;;;;;;;;;5061600;28;20040;-73
2021/12/16 05:14:42;;;;;;;10.98;4.03;;;;;;;;;;5063990;28;20367;-73
2021/12/16 05:17:24;;;;;;;9.90;5.13;;;;;;;;;;5067744;28;20052;-73
2021/12/16 05:19:52;;;;;;;9.38;3.97;;;;;;;;;;5063749;28;20048;-73
2021/12/16 05:25:06;;;;;;;11.80;4.70;;;;;;;;;;5068909;28;20443;-73
2021/12/16 05:27:33;;;;;;;7.50;5.15;;;;;;;;;;5047198;28;20479;-73
2021/12/16 05:29:59;;;;;;;8.25;4.18;;;;;;;;;;5065524;28;20052;-73
2021/12/16 05:32:25;;;;;;;8.65;6.13;;;;;;;;;;5067131;28;20180;-73
2021/12/16 05:34:51;;;;;;;9.38;4.93;;;;;;;;;;5065892;28;20094;-73
2021/12/16 05:37:17;;;;;;;10.18;4.65;;;;;;;;;;5067880;28;20028;-73
2021/12/16 05:39:44;;;;;;;8.38;3.83;;;;;;;;;;5050991;28;20103;-73
2021/12/16 05:42:10;;;;;;;8.88;4.43;;;;;;;;;;5062079;28;20082;-73
2021/12/16 05:44:36;;;;;;;11.23;6.38;;;;;;;;;;5059265;28;20079;-73
2021/12/16 05:47:02;;;;;;;10.20;5.55;;;;;;;;;;5055386;28;20048;-73
2021/12/16 05:49:28;;;;;;;9.82;6.03;;;;;;;;;;5087955;28;20412;-73
2021/12/16 05:51:55;;;;;;;11.38;5.55;;;;;;;;;;5044704;28;20449;-73
2021/12/16 05:54:21;;;;;;;13.25;7.18;;;;;;;;;;5089763;28;20415;-73
2021/12/16 05:56:48;;;;;;;9.40;5.15;;;;;;;;;;5054933;28;20052;-73
2021/12/16 05:59:18;;;;;;;11.85;6.80;;;;;;;;;;5061287;28;20047;-73
2021/12/16 06:01:46;;;;;;;22.38;7.53;;;;;;;;;;5060186;28;20036;-73
2021/12/16 06:04:12;;;;;;;16.60;6.75;;;;;;;;;;5064440;28;20106;-73
2021/12/16 06:06:39;;;;;;;22.27;6.78;;;;;;;;;;5067354;28;20421;-73
2021/12/16 06:09:06;;;;;;;21.40;5.85;;;;;;;;;;5047335;28;20048;-73
2021/12/16 06:11:33;;;;;;;13.02;5.57;;;;;;;;;;5056717;28;20398;-73
2021/12/16 06:14:23;;;;;;;7.70;4.85;;;;;;;;;;5064106;28;20519;-73
2021/12/16 06:27:41;;;;;;;12.88;6.53;;;;;;;;;;5060081;28;20510;-73
2021/12/16 06:30:12;;;;;;;10.10;6.97;;;;;;;;;;5064057;28;20075;-73
2021/12/16 06:32:38;;;;;;;12.98;6.78;;;;;;;;;;5067382;28;20127;-73
2021/12/16 06:35:06;;;;;;;10.32;6.45;;;;;;;;;;5063423;28;20045;-73
2021/12/16 06:37:32;;;;;;;10.93;7.55;;;;;;;;;;5065282;28;20047;-73
2021/12/16 06:39:58;;;;;;;12.57;7.18;;;;;;;;;;5067103;28;20263;-73
2021/12/16 06:42:26;;;;;;;19.27;7.57;;;;;;;;;;5048828;28;20118;-73
2021/12/16 06:45:00;;;;;;;12.57;8.10;;;;;;;;;;5067518;28;20143;-73
2021/12/16 06:47:34;;;;;;;17.98;8.35;;;;;;;;;;5066756;28;20521;-73
2021/12/16 06:50:00;;;;;;;14.65;8.48;;;;;;;;;;5065950;28;20115;-73
2021/12/16 06:52:34;;;;;;;33.40;9.68;;;;;;;;;;5065704;28;20410;-73
2021/12/16 06:57:52;;;;;;;9.77;6.05;;;;;;;;;;5063265;28;20076;-74
2021/12/16 07:00:28;;;;;;;12.50;7.03;;;;;;;;;;5099020;27;20048;-73
2021/12/16 07:05:22;;;;;;;11.10;6.50;;;;;;;;;;5067072;28;20110;-73
2021/12/16 07:07:48;;;;;;;9.60;6.25;;;;;;;;;;5069118;28;20087;-73
2021/12/16 07:10:15;;;;;;;14.25;6.22;;;;;;;;;;5055335;28;20077;-73
2021/12/16 07:12:47;;;;;;;22.10;7.93;;;;;;;;;;5063763;28;20130;-73
2021/12/16 07:15:15;;;;;;;65.83;14.23;;;;;;;;;;5068407;28;20045;-73
2021/12/16 07:17:41;;;;;;;15.10;8.80;;;;;;;;;;5083812;28;20394;-73
2021/12/16 07:20:09;;;;;;;29.00;9.38;;;;;;;;;;5068536;28;20827;-73
2021/12/16 07:22:36;;;;;;;44.13;11.10;;;;;;;;;;5069388;28;20390;-73
2021/12/16 07:25:05;;;;;;;54.78;11.65;;;;;;;;;;5069333;28;20072;-74
2021/12/16 07:27:34;;;;;;;21.67;7.75;;;;;;;;;;5068584;28;20036;-73
2021/12/16 07:30:00;;;;;;;9.05;6.35;;;;;;;;;;5053066;28;20056;-72
2021/12/16 07:32:26;;;;;;;15.15;7.57;;;;;;;;;;5070017;28;20048;-74
2021/12/16 07:34:52;;;;;;;26.80;9.27;;;;;;;;;;5068428;28;20103;-73
2021/12/16 07:37:18;;;;;;;38.92;8.70;;;;;;;;;;5070545;28;20040;-73
2021/12/16 07:39:47;;;;;;;33.80;9.50;;;;;;;;;;5069175;28;20032;-73
2021/12/16 07:42:15;;;;;;;122.18;17.50;;;;;;;;;;5068372;28;20036;-74
2021/12/16 07:44:41;;;;;;;160.23;19.77;;;;;;;;;;5069590;28;20114;-72
2021/12/16 07:47:09;;;;;;;102.88;15.82;;;;;;;;;;5067448;28;20517;-73
2021/12/16 07:49:39;;;;;;;46.45;10.57;;;;;;;;;;5070756;28;20033;-73
2021/12/16 07:52:06;;;;;;;50.53;10.95;;;;;;;;;;5065802;28;20372;-73
2021/12/16 07:54:33;;;;;;;35.22;9.13;;;;;;;;;;5065252;28;20050;-73
2021/12/16 07:57:00;;;;;;;152.02;17.38;;;;;;;;;;5062328;28;20075;-73
2021/12/16 07:59:27;;;;;;;76.95;13.95;;;;;;;;;;5068491;28;20499;-73
2021/12/16 08:01:54;;;;;;;66.57;12.65;;;;;;;;;;5065441;28;20177;-73
2021/12/16 08:04:26;;;;;;;98.35;13.90;;;;;;;;;;5070285;28;20071;-73
2021/12/16 08:06:54;;;;;;;97.15;14.40;;;;;;;;;;5052942;28;20448;-73
2021/12/16 08:09:20;;;;;;;132.20;18.50;;;;;;;;;;5066335;28;20086;-73
2021/12/16 08:11:48;;;;;;;56.47;10.18;;;;;;;;;;5100938;27;20230;-73
2021/12/16 08:14:14;;;;;;;113.72;15.48;;;;;;;;;;5067214;28;20040;-73
2021/12/16 08:16:41;;;;;;;35.78;11.10;;;;;;;;;;5066445;28;20033;-73
2021/12/16 08:19:07;;;;;;;69.43;11.60;;;;;;;;;;5069955;28;20037;-73
2021/12/16 08:21:34;;;;;;;25.15;9.07;;;;;;;;;;5069745;28;20040;-73
2021/12/16 08:24:01;;;;;;;42.42;10.98;;;;;;;;;;5068565;28;20040;-73
2021/12/16 08:26:28;;;;;;;45.33;10.45;;;;;;;;;;5066312;28;20041;-73
2021/12/16 08:28:54;;;;;;;33.97;9.48;;;;;;;;;;5068160;28;20395;-73
2021/12/16 08:31:21;;;;;;;73.85;11.65;;;;;;;;;;5066756;28;20188;-73
2021/12/16 08:33:48;;;;;;;65.40;10.57;;;;;;;;;;5075001;28;20091;-73
2021/12/16 08:36:15;;;;;;;57.72;11.20;;;;;;;;;;5066353;28;20032;-73
2021/12/16 08:38:41;;;;;;;64.47;11.63;;;;;;;;;;5070780;28;20039;-73
2021/12/16 08:41:13;;;;;;;112.75;14.63;;;;;;;;;;5054010;28;20045;-73
2021/12/16 08:43:41;;;;;;;48.20;9.90;;;;;;;;;;5065412;28;20037;-73
2021/12/16 08:46:08;;;;;;;92.25;14.70;;;;;;;;;;5067556;28;20042;-72
2021/12/16 08:48:35;;;;;;;49.70;10.65;;;;;;;;;;5069681;28;20043;-73
2021/12/16 08:51:01;;;;;;;76.93;12.68;;;;;;;;;;5065947;28;20043;-73
2021/12/16 08:53:28;;;;;;;38.67;10.30;;;;;;;;;;5039120;28;20045;-72
2021/12/16 08:55:56;;;;;;;86.15;12.57;;;;;;;;;;5067376;28;20127;-73
2021/12/16 08:58:22;;;;;;;86.38;12.00;;;;;;;;;;5062996;28;20040;-73
2021/12/16 09:01:01;;;;;;;17.27;8.00;;;;;;;;;;5067125;28;20076;-73
2021/12/16 09:03:27;;;;;;;20.70;9.00;;;;;;;;;;5096623;27;20267;-73
2021/12/16 09:05:54;;;;;;;24.33;9.93;;;;;;;;;;5066184;28;20032;-73
2021/12/16 09:08:20;;;;;;;36.47;11.13;;;;;;;;;;5063454;28;20394;-72
2021/12/16 09:10:46;;;;;;;74.22;16.55;;;;;;;;;;5066216;28;20048;-73
2021/12/16 09:13:14;;;;;;;141.05;19.83;;;;;;;;;;5061745;28;20040;-73
2021/12/16 09:15:55;;;;;;;109.82;18.50;;;;;;;;;;5068441;28;20478;-73
2021/12/16 09:18:22;;;;;;;61.42;11.98;;;;;;;;;;5066837;28;20074;-73
2021/12/16 09:20:49;;;;;;;80.97;14.13;;;;;;;;;;5063592;28;20047;-73
2021/12/16 09:23:16;;;;;;;102.22;15.75;;;;;;;;;;5067871;28;20123;-73
2021/12/16 09:25:44;;;;;;;65.28;16.45;;;;;;;;;;5067156;28;20060;-73
2021/12/16 09:28:11;;;;;;;199.48;24.10;;;;;;;;;;5064397;28;20037;-73
2021/12/16 09:30:38;;;;;;;184.15;23.23;;;;;;;;;;5067344;28;20044;-73
2021/12/16 09:33:05;;;;;;;194.07;25.73;;;;;;;;;;5067027;28;20055;-73
2021/12/16 09:35:33;;;;;;;66.50;17.85;;;;;;;;;;5065977;28;20112;-73
2021/12/16 09:38:00;;;;;;;95.53;18.90;;;;;;;;;;5098545;27;20460;-72
2021/12/16 09:40:28;;;;;;;42.08;15.52;;;;;;;;;;5066724;28;20047;-72
2021/12/16 09:42:55;;;;;;;134.75;21.52;;;;;;;;;;5060819;28;20178;-72
2021/12/16 09:45:21;;;;;;;140.68;21.52;;;;;;;;;;5066252;28;20416;-73
2021/12/16 09:47:48;;;;;;;106.18;20.60;;;;;;;;;;5065147;28;20068;-73
2021/12/16 09:50:18;;;;;;;68.60;16.58;;;;;;;;;;5097583;27;20427;-73
2021/12/16 09:52:44;;;;;;;62.45;15.52;;;;;;;;;;5068546;28;20074;-73
2021/12/16 09:55:10;;;;;;;43.58;13.68;;;;;;;;;;5066065;28;20517;-73
2021/12/16 09:57:37;;;;;;;27.48;11.77;;;;;;;;;;5064361;28;20086;-72
2021/12/16 10:00:05;;;;;;;152.10;18.50;;;;;;;;;;5065463;28;20048;-73
2021/12/16 10:02:32;;;;;;;12.40;9.50;;;;;;;;;;5065041;28;20508;-72
2021/12/16 10:04:59;;;;;;;13.07;8.38;;;;;;;;;;5068789;28;20082;-73
2021/12/16 10:07:33;;;;;;;35.20;12.85;;;;;;;;;;5067349;28;20040;-73
2021/12/16 10:10:00;;;;;;;60.25;13.85;;;;;;;;;;5075476;28;20453;-73
2021/12/16 10:12:32;;;;;;;16.25;8.43;;;;;;;;;;5066359;28;20363;-73
2021/12/16 10:15:06;;;;;;;15.33;9.33;;;;;;;;;;5064561;28;20037;-73
2021/12/16 10:17:35;;;;;;;19.65;9.13;;;;;;;;;;5065577;28;20417;-73
2021/12/16 10:20:09;;;;;;;8.25;6.85;;;;;;;;;;5056682;28;20506;-73
2021/12/16 10:22:41;;;;;;;10.05;7.43;;;;;;;;;;5069057;28;20049;-73
2021/12/16 10:25:30;;;;;;;12.50;7.80;;;;;;;;;;5065459;28;20090;-72
2021/12/16 10:28:03;;;;;;;11.25;7.93;;;;;;;;;;5072098;28;20079;-73
2021/12/16 10:30:58;;;;;;;22.00;9.57;;;;;;;;;;5080940;28;20144;-73
2021/12/16 10:33:28;;;;;;;18.65;10.80;;;;;;;;;;5071749;28;20056;-73
2021/12/16 10:36:03;;;;;;;23.70;9.52;;;;;;;;;;5069159;28;20494;-73
2021/12/16 10:38:33;;;;;;;19.45;8.90;;;;;;;;;;5086587;28;20128;-73
2021/12/16 10:40:59;;;;;;;16.70;10.52;;;;;;;;;;5070450;28;20090;-72
2021/12/16 10:43:31;;;;;;;16.95;10.75;;;;;;;;;;5065619;28;20039;-72
2021/12/16 10:45:57;;;;;;;13.75;9.98;;;;;;;;;;5070034;28;20521;-73
2021/12/16 10:48:23;;;;;;;13.70;9.20;;;;;;;;;;5070489;28;20029;-73
2021/12/16 10:51:09;;;;;;;18.35;9.35;;;;;;;;;;5067624;28;20059;-73
2021/12/16 10:53:48;;;;;;;27.77;10.55;;;;;;;;;;5071069;28;20052;-73
2021/12/16 10:56:15;;;;;;;55.65;16.25;;;;;;;;;;5070180;28;20067;-73
2021/12/16 10:58:52;;;;;;;18.73;11.57;;;;;;;;;;5069745;28;20597;-73
2021/12/16 11:01:37;;;;;;;19.98;9.55;;;;;;;;;;5063851;28;20063;-73
2021/12/16 11:04:07;;;;;;;40.13;13.63;;;;;;;;;;5069329;28;20049;-72
2021/12/16 11:06:36;;;;;;;35.13;13.77;;;;;;;;;;5066959;28;20071;-73
2021/12/16 11:09:21;;;;;;;19.05;11.93;;;;;;;;;;5062704;28;20075;-73
2021/12/16 11:11:47;;;;;;;79.75;17.58;;;;;;;;;;5070108;28;20048;-73
2021/12/16 11:14:21;;;;;;;18.40;12.05;;;;;;;;;;5066951;28;20048;-73
2021/12/16 11:16:56;;;;;;;85.40;16.65;;;;;;;;;;5069265;28;20876;-73
2021/12/16 11:19:40;;;;;;;37.83;14.50;;;;;;;;;;5071259;28;20040;-73
2021/12/16 11:22:07;;;;;;;48.78;15.65;;;;;;;;;;5066937;28;20041;-72
2021/12/16 11:24:33;;;;;;;91.22;18.55;;;;;;;;;;5068721;28;20066;-73
2021/12/16 11:26:59;;;;;;;74.57;20.15;;;;;;;;;;5070384;28;20040;-73
2021/12/16 11:29:30;;;;;;;34.55;13.57;;;;;;;;;;5067132;28;20047;-73
2021/12/16 11:31:56;;;;;;;95.38;25.08;;;;;;;;;;5067258;28;20052;-73
2021/12/16 11:34:23;;;;;;;105.55;24.20;;;;;;;;;;5071007;28;20040;-73
2021/12/16 11:36:53;;;;;;;91.32;25.90;;;;;;;;;;5066344;28;20082;-73
2021/12/16 11:39:24;;;;;;;88.20;24.10;;;;;;;;;;5069928;28;20037;-73
2021/12/16 11:41:52;;;;;;;153.80;28.30;;;;;;;;;;5070131;28;20044;-73
2021/12/16 11:44:23;;;;;;;57.10;22.63;;;;;;;;;;5064603;28;20052;-73
2021/12/16 11:46:57;;;;;;;102.75;28.30;;;;;;;;;;5069036;28;20036;-73
2021/12/16 11:49:25;;;;;;;40.95;21.27;;;;;;;;;;5072227;28;20036;-73
2021/12/16 11:51:59;;;;;;;40.72;21.77;;;;;;;;;;5066240;28;20067;-73
2021/12/16 11:54:32;;;;;;;26.75;17.13;;;;;;;;;;5068804;28;20036;-73
2021/12/16 11:57:01;;;;;;;25.25;18.30;;;;;;;;;;5069604;28;20186;-73
2021/12/16 11:59:27;;;;;;;42.63;20.92;;;;;;;;;;5063874;28;20398;-72
2021/12/16 12:01:54;;;;;;;102.80;30.10;;;;;;;;;;5068175;28;20045;-73
2021/12/16 12:04:25;;;;;;;50.50;21.83;;;;;;;;;;5067819;28;20410;-73
2021/12/16 12:06:51;;;;;;;78.38;34.30;;;;;;;;;;5066908;28;20036;-73
2021/12/16 12:09:17;;;;;;;77.38;26.60;;;;;;;;;;5060114;28;20040;-73
2021/12/16 12:11:43;;;;;;;95.18;30.70;;;;;;;;;;5069592;28;20051;-73
2021/12/16 12:14:11;;;;;;;37.53;22.00;;;;;;;;;;5067015;28;20072;-73
2021/12/16 12:16:39;;;;;;;40.33;22.50;;;;;;;;;;5069721;28;20130;-73
2021/12/16 12:19:14;;;;;;;55.97;24.02;;;;;;;;;;5069108;28;20133;-73
2021/12/16 12:21:40;;;;;;;51.13;25.38;;;;;;;;;;5067422;28;20043;-73
2021/12/16 12:24:12;;;;;;;100.97;37.90;;;;;;;;;;5069994;28;20051;-73
2021/12/16 12:26:40;;;;;;;48.75;25.83;;;;;;;;;;5065788;28;20042;-73
2021/12/16 12:29:09;;;;;;;56.05;26.77;;;;;;;;;;5067022;28;20405;-73
2021/12/16 12:31:37;;;;;;;54.63;23.52;;;;;;;;;;5069561;28;20124;-73
2021/12/16 12:34:03;;;;;;;44.05;20.00;;;;;;;;;;5067148;28;20509;-73
2021/12/16 12:36:30;;;;;;;71.45;32.00;;;;;;;;;;5067048;28;20294;-73
2021/12/16 12:38:57;;;;;;;59.95;25.90;;;;;;;;;;5057989;28;20044;-73
2021/12/16 12:41:23;;;;;;;57.83;24.23;;;;;;;;;;5067709;28;20051;-73
2021/12/16 12:43:51;;;;;;;48.55;20.38;;;;;;;;;;5066562;28;20044;-72
2021/12/16 12:46:18;;;;;;;75.68;22.65;;;;;;;;;;5068320;28;20471;-73
2021/12/16 12:48:44;;;;;;;65.60;23.25;;;;;;;;;;5067050;28;20704;-73
2021/12/16 12:51:11;;;;;;;41.45;19.25;;;;;;;;;;5066575;28;20079;-73
2021/12/16 12:53:46;;;;;;;45.00;20.73;;;;;;;;;;5069956;28;20035;-73
2021/12/16 12:56:22;;;;;;;39.92;18.05;;;;;;;;;;5096355;28;20078;-73
2021/12/16 12:58:58;;;;;;;55.58;21.92;;;;;;;;;;5068799;28;20040;-73
2021/12/16 13:01:38;;;;;;;133.23;36.30;;;;;;;;;;5092052;27;20076;-72
2021/12/16 13:04:07;;;;;;;55.95;25.45;;;;;;;;;;5067418;28;20189;-72
2021/12/16 13:06:46;;;;;;;67.22;24.13;;;;;;;;;;5067484;28;20094;-73
2021/12/16 13:09:26;;;;;;;46.72;20.35;;;;;;;;;;5060503;28;20043;-73
2021/12/16 13:11:53;;;;;;;31.52;19.70;;;;;;;;;;5099035;28;20058;-73
2021/12/16 13:14:37;;;;;;;39.50;21.58;;;;;;;;;;5062521;28;20430;-73
2021/12/16 13:31:07;;;;;;;42.97;23.90;;;;;;;;;;5066961;28;20060;-73
2021/12/16 13:33:40;;;;;;;35.38;21.88;;;;;;;;;;5093913;28;20082;-73
2021/12/16 13:36:15;;;;;;;61.53;24.00;;;;;;;;;;5066036;28;20069;-73
2021/12/16 13:38:48;;;;;;;45.15;23.85;;;;;;;;;;5052280;28;20040;-73
2021/12/16 13:41:16;;;;;;;96.80;33.45;;;;;;;;;;5061087;28;20044;-72
2021/12/16 13:44:06;;;;;;;75.65;30.20;;;;;;;;;;5069017;28;20044;-73
2021/12/16 13:46:51;;;;;;;78.18;26.05;;;;;;;;;;5068198;28;20067;-73
2021/12/16 14:03:45;;;;;;;50.25;24.65;;;;;;;;;;5053221;28;20051;-73
2021/12/16 14:06:25;;;;;;;42.15;26.00;;;;;;;;;;5061317;28;20072;-73
2021/12/16 14:08:52;;;;;;;43.58;23.95;;;;;;;;;;5063259;28;20418;-73
2021/12/16 14:17:53;;;;;;;40.33;25.65;;;;;;;;;;5057318;28;20056;-73
2021/12/16 14:23:25;;;;;;;39.72;25.17;;;;;;;;;;5056645;28;20053;-73
2021/12/16 14:31:38;;;;;;;44.80;27.20;;;;;;;;;;5058630;28;20433;-73
2021/12/16 14:37:11;;;;;;;41.33;26.48;;;;;;;;;;5057553;28;20055;-73
2021/12/16 14:50:23;;;;;;;56.05;29.92;;;;;;;;;;5090280;28;20049;-73
2021/12/16 14:52:49;;;;;;;;;;;;;;;;;;5096206;28;20083;-73
2021/12/16 14:55:16;;;;;;;47.72;23.70;;;;;;;;;;5062856;28;19920;-73
2021/12/16 14:57:44;;;;;;;42.63;22.90;;;;;;;;;;5054467;28;20052;-73
2021/12/16 15:00:23;;;;;;;36.78;21.33;;;;;;;;;;5060655;28;20090;-73
2021/12/16 15:02:57;;;;;;;39.10;23.92;;;;;;;;;;5055541;28;20049;-73
2021/12/16 15:05:25;;;;;;;46.65;23.95;;;;;;;;;;5058320;28;20059;-73
2021/12/16 15:07:52;;;;;;;40.03;21.90;;;;;;;;;;5060892;28;21399;-73
2021/12/16 15:10:19;;;;;;;36.00;21.17;;;;;;;;;;5054164;28;20041;-72
2021/12/16 15:12:56;;;;;;;40.92;22.58;;;;;;;;;;5091415;28;20043;-73
2021/12/16 15:15:31;;;;;;;43.45;23.95;;;;;;;;;;5098244;28;20559;-73
2021/12/16 15:39:54;;;;;;;53.70;29.80;;;;;;;;;;5096109;27;20086;-73
2021/12/16 15:45:09;;;;;;;59.83;30.13;;;;;;;;;;5060989;28;20230;-73
2021/12/16 15:47:40;;;;;;;42.35;25.60;;;;;;;;;;5055655;28;20033;-73
2021/12/16 15:50:06;;;;;;;60.75;31.95;;;;;;;;;;5065407;28;20033;-73
2021/12/16 15:52:40;;;;;;;47.00;26.35;;;;;;;;;;5062666;28;20501;-73
2021/12/16 15:55:06;;;;;;;52.47;29.40;;;;;;;;;;5039588;28;20056;-73
2021/12/16 15:57:32;;;;;;;60.22;26.15;;;;;;;;;;5064074;28;20055;-73
2021/12/16 16:00:25;;;;;;;45.05;25.40;;;;;;;;;;5042039;28;20044;-73
2021/12/16 16:02:51;;;;;;;42.03;24.50;;;;;;;;;;5063220;28;20049;-74
2021/12/16 16:05:17;;;;;;;46.72;26.05;;;;;;;;;;5094901;28;20044;-73
2021/12/16 16:07:44;;;;;;;60.78;28.23;;;;;;;;;;5062382;28;20052;-73
2021/12/16 16:10:12;;;;;;;50.30;26.45;;;;;;;;;;5067963;28;20044;-74
2021/12/16 16:12:38;;;;;;;50.47;27.30;;;;;;;;;;5093832;27;20547;-73
2021/12/16 16:15:16;;;;;;;48.38;26.58;;;;;;;;;;5057884;28;20040;-73
2021/12/16 16:17:59;;;;;;;55.85;30.20;;;;;;;;;;5058082;28;20048;-73
2021/12/16 16:20:28;;;;;;;53.00;26.33;;;;;;;;;;5057575;28;20500;-73
2021/12/16 16:22:54;;;;;;;55.55;29.63;;;;;;;;;;5061634;28;20043;-73
2021/12/16 16:25:21;;;;;;;61.38;32.00;;;;;;;;;;5063620;28;20079;-72
2021/12/16 16:27:47;;;;;;;55.28;27.02;;;;;;;;;;5061906;28;20164;-73
2021/12/16 16:30:13;;;;;;;62.67;33.95;;;;;;;;;;5060725;28;20053;-72
2021/12/16 16:33:03;;;;;;;56.85;28.58;;;;;;;;;;5062356;28;20049;-74
2021/12/16 16:35:30;;;;;;;50.67;26.25;;;;;;;;;;5059604;28;20136;-73
2021/12/16 16:38:07;;;;;;;49.40;26.20;;;;;;;;;;5062655;28;20047;-73
2021/12/16 16:40:36;;;;;;;64.68;28.42;;;;;;;;;;5057268;28;20075;-74
2021/12/16 16:43:15;;;;;;;49.67;24.85;;;;;;;;;;5061744;28;20558;-73
2021/12/16 16:45:43;;;;;;;48.35;21.15;;;;;;;;;;5074914;28;20090;-73
2021/12/16 16:48:27;;;;;;;132.02;43.03;;;;;;;;;;5062335;28;20041;-73
2021/12/16 16:51:02;;;;;;;147.27;42.60;;;;;;;;;;5065826;28;20036;-73
2021/12/16 16:53:28;;;;;;;61.90;30.92;;;;;;;;;;5060441;28;20036;-73
2021/12/16 16:55:55;;;;;;;58.00;24.20;;;;;;;;;;5061383;28;20561;-73
2021/12/16 16:58:21;;;;;;;50.33;22.15;;;;;;;;;;5059522;28;20068;-73
2021/12/16 17:00:50;;;;;;;39.42;19.52;;;;;;;;;;5060259;28;20466;-73
2021/12/16 17:03:18;;;;;;;86.45;25.90;;;;;;;;;;5058444;28;20109;-73
2021/12/16 17:05:46;;;;;;;46.58;20.58;;;;;;;;;;5060288;28;20084;-74
2021/12/16 17:08:13;;;;;;;93.03;22.65;;;;;;;;;;5056474;28;20410;-73
2021/12/16 17:10:45;;;;;;;29.67;14.75;;;;;;;;;;5061362;28;20036;-73
2021/12/16 17:13:18;;;;;;;49.87;17.57;;;;;;;;;;5062605;28;20494;-73
2021/12/16 17:18:45;;;;;;;64.15;18.02;;;;;;;;;;5058933;28;20036;-74
2021/12/16 17:21:22;;;;;;;26.13;11.43;;;;;;;;;;5058998;28;20451;-73
2021/12/16 17:23:50;;;;;;;40.35;14.32;;;;;;;;;;5052016;28;20052;-74
2021/12/16 17:26:25;;;;;;;23.45;11.38;;;;;;;;;;5057219;28;20082;-74
2021/12/16 17:28:56;;;;;;;25.38;12.70;;;;;;;;;;5056103;28;20036;-73
2021/12/16 17:31:30;;;;;;;25.75;14.13;;;;;;;;;;5094203;27;20165;-73
2021/12/16 17:34:04;;;;;;;34.08;15.80;;;;;;;;;;5090871;27;20126;-73
2021/12/16 17:36:32;;;;;;;35.58;15.40;;;;;;;;;;5058311;28;20040;-74
2021/12/16 17:39:07;;;;;;;29.98;14.32;;;;;;;;;;5062950;28;20084;-73
2021/12/16 17:41:33;;;;;;;49.67;18.23;;;;;;;;;;5091020;28;20379;-74
2021/12/16 17:43:59;;;;;;;38.30;15.88;;;;;;;;;;5060765;28;20040;-73
2021/12/16 17:46:26;;;;;;;45.75;17.48;;;;;;;;;;5055530;28;20041;-73
2021/12/16 17:48:52;;;;;;;27.10;13.88;;;;;;;;;;5058235;28;20032;-74
2021/12/16 17:51:20;;;;;;;75.15;20.08;;;;;;;;;;5062096;28;20123;-74
2021/12/16 17:53:50;;;;;;;33.88;16.20;;;;;;;;;;5063449;28;20583;-73
2021/12/16 17:56:17;;;;;;;38.33;16.35;;;;;;;;;;5056422;28;20045;-74
2021/12/16 17:58:44;;;;;;;77.30;21.13;;;;;;;;;;5060331;28;20063;-74
2021/12/16 18:01:13;;;;;;;46.40;18.25;;;;;;;;;;5052501;28;20044;-73
2021/12/16 18:03:51;;;;;;;34.92;16.02;;;;;;;;;;5061930;28;20493;-73
2021/12/16 18:06:20;;;;;;;36.33;15.82;;;;;;;;;;5068582;28;20036;-73
2021/12/16 18:08:48;;;;;;;57.72;19.15;;;;;;;;;;5058768;28;20067;-73
2021/12/16 18:11:17;;;;;;;27.63;12.90;;;;;;;;;;5068727;28;20612;-74
2021/12/16 18:13:45;;;;;;;22.90;12.68;;;;;;;;;;5064758;28;20044;-74
2021/12/16 18:16:20;;;;;;;30.55;15.18;;;;;;;;;;5061992;28;20465;-73
2021/12/16 18:18:49;;;;;;;28.85;12.98;;;;;;;;;;5062888;28;20430;-74
2021/12/16 18:21:15;;;;;;;39.63;17.65;;;;;;;;;;5065851;28;20046;-73
2021/12/16 18:23:44;;;;;;;22.95;12.48;;;;;;;;;;5062137;28;20048;-74
2021/12/16 18:26:11;;;;;;;26.27;14.80;;;;;;;;;;5065024;28;20047;-73
2021/12/16 18:28:40;;;;;;;32.78;14.93;;;;;;;;;;5061310;28;20569;-73
2021/12/16 18:31:18;;;;;;;37.17;17.80;;;;;;;;;;5062740;28;20040;-73
2021/12/16 18:33:47;;;;;;;30.58;14.13;;;;;;;;;;5066798;28;20609;-74
2021/12/16 18:36:31;;;;;;;37.17;18.13;;;;;;;;;;5066650;28;20051;-73
2021/12/16 18:39:05;;;;;;;30.75;16.23;;;;;;;;;;5060275;28;20029;-74
2021/12/16 18:41:34;;;;;;;28.73;15.70;;;;;;;;;;5065697;28;20036;-74